Time,TemperatureF,DewpointF,PressureIn,WindDirection,WindDirectionDegrees,WindSpeedMPH,WindSpeedGustMPH,Humidity,HourlyPrecipIn,Conditions,Clouds,dailyrainin,SoftwareType,DateUTC
2013-02-12 00:00:00,11.8,8.9,30.02,NW,315,2.6,2.7,88,0.00,SCT,,0.00,WeatherDisplay:10.37,2013-02-12 06:00:00,
2013-02-12 00:05:00,11.3,8.4,30.02,NW,315,2.0,2.3,88,0.00,CLR,,0.00,WeatherDisplay:10.37,2013-02-12 06:05:00,
2013-02-12 00:10:00,11.3,8.4,30.01,NW,315,2.3,2.7,88,0.00,CLR,,0.00,WeatherDisplay:10.37,2013-02-12 06:10:00,
2013-02-12 00:15:00,10.9,8.3,30.01,NW,315,2.2,2.7,89,0.00,CLR,,0.00,WeatherDisplay:10.37,2013-02-12 06:15:00,
2013-02-12 00:20:00,10.9,8.3,30.01,NW,315,2.5,4.2,89,0.00,CLR,,0.00,WeatherDisplay:10.37,2013-02-12 06:20:00,
2013-02-12 00:25:00,10.8,8.2,30.02,NW,315,2.2,2.3,89,0.00,CLR,,0.00,WeatherDisplay:10.37,2013-02-12 06:25:00,
2013-02-12 00:30:00,10.4,7.8,30.02,NW,315,2.1,2.3,89,0.00,CLR,,0.00,WeatherDisplay:10.37,2013-02-12 06:30:00,
2013-02-12 00:36:00,10.2,7.6,30.02,WSW,248,2.1,4.6,89,0.00,CLR,,0.00,WeatherDisplay:10.37,2013-02-12 06:36:00,
2013-02-12 00:41:00,10.2,7.6,30.02,West,270,2.1,2.3,89,0.00,CLR,,0.00,WeatherDisplay:10.37,2013-02-12 06:41:00,
2013-02-12 00:46:00,10.0,7.4,30.01,West,270,2.1,2.3,89,0.00,CLR,,0.00,WeatherDisplay:10.37,2013-02-12 06:46:00,
2013-02-12 00:51:00,9.9,7.3,30.01,West,270,0.1,2.7,89,0.00,CLR,,0.00,WeatherDisplay:10.37,2013-02-12 06:51:00,
2013-02-12 00:56:00,9.7,7.1,30.01,West,270,2.0,2.3,89,0.00,CLR,,0.00,WeatherDisplay:10.37,2013-02-12 06:56:00,
2013-02-12 01:01:00,9.7,7.1,30.02,West,270,1.5,2.3,89,0.00,CLR,,0.00,WeatherDisplay:10.37,2013-02-12 07:01:00,
2013-02-12 01:06:00,9.5,6.9,30.02,NW,315,2.1,3.5,89,0.00,CLR,,0.00,WeatherDisplay:10.37,2013-02-12 07:06:00,
2013-02-12 01:11:00,9.5,6.9,30.02,West,270,3.2,4.2,89,0.00,CLR,,0.00,WeatherDisplay:10.37,2013-02-12 07:11:00,
2013-02-12 01:16:00,9.5,6.9,30.02,West,270,1.8,2.3,89,0.00,CLR,,0.00,WeatherDisplay:10.37,2013-02-12 07:16:00,
2013-02-12 01:21:00,9.7,7.1,30.01,SW,225,1.7,2.3,89,0.00,CLR,,0.00,WeatherDisplay:10.37,2013-02-12 07:21:00,
2013-02-12 01:27:00,9.9,7.3,30.01,WSW,248,1.8,2.3,89,0.00,CLR,,0.00,WeatherDisplay:10.37,2013-02-12 07:27:00,
2013-02-12 01:32:00,11.1,8.5,30.01,SW,225,4.4,4.7,89,0.00,CLR,,0.00,WeatherDisplay:10.37,2013-02-12 07:32:00,
2013-02-12 01:37:00,11.5,8.9,30.01,West,270,3.9,5.8,89,0.00,CLR,,0.00,WeatherDisplay:10.37,2013-02-12 07:37:00,
2013-02-12 01:42:00,12.0,9.1,30.01,West,270,3.3,4.6,88,0.00,CLR,,0.00,WeatherDisplay:10.37,2013-02-12 07:42:00,
2013-02-12 01:47:00,12.6,9.7,30.01,WSW,248,4.3,4.6,88,0.00,CLR,,0.00,WeatherDisplay:10.37,2013-02-12 07:47:00,
2013-02-12 01:52:00,12.7,9.6,30.01,West,270,2.7,3.5,87,0.00,CLR,,0.00,WeatherDisplay:10.37,2013-02-12 07:52:00,
2013-02-12 01:57:00,12.9,9.8,30.02,West,270,3.2,5.8,87,0.00,CLR,,0.00,WeatherDisplay:10.37,2013-02-12 07:57:00,
2013-02-12 02:02:00,13.3,10.2,30.02,WSW,248,3.3,3.5,87,0.00,BKN,,0.00,WeatherDisplay:10.37,2013-02-12 08:02:00,
2013-02-12 02:07:00,13.3,10.2,30.02,WSW,248,2.7,3.5,87,0.00,BKN,,0.00,WeatherDisplay:10.37,2013-02-12 08:07:00,
2013-02-12 02:12:00,13.3,10.2,30.02,SW,225,2.9,3.5,87,0.00,BKN,,0.00,WeatherDisplay:10.37,2013-02-12 08:12:00,
2013-02-12 02:18:00,13.5,10.4,30.02,WSW,248,2.5,3.5,87,0.00,BKN,,0.00,WeatherDisplay:10.37,2013-02-12 08:18:00,
2013-02-12 02:23:00,13.8,10.6,30.01,West,270,3.0,3.5,87,0.00,BKN,,0.00,WeatherDisplay:10.37,2013-02-12 08:23:00,
2013-02-12 02:28:00,14.0,10.6,30.01,West,270,3.4,5.8,86,0.00,BKN,,0.00,WeatherDisplay:10.37,2013-02-12 08:28:00,
2013-02-12 02:33:00,14.0,10.6,30.01,SSW,202,2.2,3.5,86,0.00,BKN,,0.00,WeatherDisplay:10.37,2013-02-12 08:33:00,
2013-02-12 02:38:00,14.0,10.6,30.01,WSW,248,1.9,2.3,86,0.00,BKN,,0.00,WeatherDisplay:10.37,2013-02-12 08:38:00,
2013-02-12 02:43:00,14.0,10.6,30.01,SW,225,1.7,1.7,86,0.00,BKN,,0.00,WeatherDisplay:10.37,2013-02-12 08:43:00,
2013-02-12 02:48:00,14.0,10.6,30.02,West,270,2.7,2.7,86,0.00,BKN,,0.00,WeatherDisplay:10.37,2013-02-12 08:48:00,
2013-02-12 02:53:00,14.7,11.3,30.02,West,270,3.5,4.6,86,0.00,BKN,,0.00,WeatherDisplay:10.37,2013-02-12 08:53:00,
2013-02-12 02:58:00,14.9,11.5,30.01,West,270,3.4,4.6,86,0.00,BKN,,0.00,WeatherDisplay:10.37,2013-02-12 08:58:00,
2013-02-12 03:04:00,14.9,11.5,30.01,WSW,248,2.8,3.5,86,0.00,BKN,,0.00,WeatherDisplay:10.37,2013-02-12 09:04:00,
2013-02-12 03:09:00,14.9,11.5,30.01,West,270,2.7,3.5,86,0.00,BKN,,0.00,WeatherDisplay:10.37,2013-02-12 09:09:00,
2013-02-12 03:14:00,15.3,11.9,30.01,WSW,248,2.9,3.5,86,0.00,OVC,,0.00,WeatherDisplay:10.37,2013-02-12 09:14:00,
2013-02-12 03:19:00,15.3,11.9,30.01,West,270,2.0,3.5,86,0.00,OVC,,0.00,WeatherDisplay:10.37,2013-02-12 09:19:00,
2013-02-12 03:24:00,15.3,11.9,30.00,SW,225,2.8,3.7,86,0.00,OVC,,0.00,WeatherDisplay:10.37,2013-02-12 09:24:00,
2013-02-12 03:29:00,15.4,12.0,30.00,SSW,202,2.7,3.5,86,0.00,OVC,,0.00,WeatherDisplay:10.37,2013-02-12 09:29:00,
2013-02-12 03:34:00,15.4,12.0,30.00,South,180,2.4,3.2,86,0.00,OVC,,0.00,WeatherDisplay:10.37,2013-02-12 09:34:00,
2013-02-12 03:39:00,15.4,12.0,30.00,SW,225,2.3,4.6,86,0.00,OVC,,0.00,WeatherDisplay:10.37,2013-02-12 09:39:00,
2013-02-12 03:44:00,15.4,12.0,30.00,WSW,248,1.9,3.7,86,0.00,OVC,,0.00,WeatherDisplay:10.37,2013-02-12 09:44:00,
2013-02-12 03:49:00,15.6,11.9,30.00,SW,225,4.1,5.8,85,0.00,OVC,,0.00,WeatherDisplay:10.37,2013-02-12 09:49:00,
2013-02-12 03:55:00,15.6,11.9,30.00,SSE,158,1.4,2.3,85,0.00,OVC,,0.00,WeatherDisplay:10.37,2013-02-12 09:55:00,
2013-02-12 04:00:00,15.6,11.9,30.00,WSW,248,2.6,3.5,85,0.00,OVC,,0.00,WeatherDisplay:10.37,2013-02-12 10:00:00,
2013-02-12 04:05:00,15.8,12.1,30.00,SW,225,2.5,2.5,85,0.00,OVC,,0.00,WeatherDisplay:10.37,2013-02-12 10:05:00,
2013-02-12 04:10:00,15.8,12.1,29.99,South,180,1.4,3.5,85,0.00,OVC,,0.00,WeatherDisplay:10.37,2013-02-12 10:10:00,
2013-02-12 04:15:00,15.8,12.1,29.99,South,180,1.3,1.3,85,0.00,OVC,,0.00,WeatherDisplay:10.37,2013-02-12 10:15:00,
2013-02-12 04:20:00,15.8,12.1,29.99,WSW,248,2.8,3.5,85,0.00,OVC,,0.00,WeatherDisplay:10.37,2013-02-12 10:20:00,
2013-02-12 04:25:00,15.8,12.1,29.99,WSW,248,2.3,3.5,85,0.00,OVC,,0.00,WeatherDisplay:10.37,2013-02-12 10:25:00,
2013-02-12 04:30:00,16.0,12.3,29.99,SSW,202,2.8,3.5,85,0.00,OVC,,0.00,WeatherDisplay:10.37,2013-02-12 10:30:00,
2013-02-12 04:35:00,16.0,12.0,30.00,South,180,1.6,4.6,84,0.00,OVC,,0.00,WeatherDisplay:10.37,2013-02-12 10:35:00,
2013-02-12 04:40:00,16.2,12.2,30.00,South,180,2.4,2.7,84,0.00,OVC,,0.00,WeatherDisplay:10.37,2013-02-12 10:40:00,
2013-02-12 04:46:00,16.2,12.2,29.98,South,180,1.0,1.7,84,0.00,OVC,,0.00,WeatherDisplay:10.37,2013-02-12 10:46:00,
2013-02-12 04:51:00,16.2,12.2,29.98,South,180,3.2,3.7,84,0.00,OVC,,0.00,WeatherDisplay:10.37,2013-02-12 10:51:00,
2013-02-12 04:56:00,16.3,12.3,29.98,South,180,1.7,1.7,84,0.00,OVC,,0.00,WeatherDisplay:10.37,2013-02-12 10:56:00,
2013-02-12 05:01:00,16.3,12.3,29.98,SSW,202,2.6,2.7,84,0.00,OVC,,0.00,WeatherDisplay:10.37,2013-02-12 11:01:00,
2013-02-12 05:06:00,16.3,12.3,29.98,SSW,202,2.8,3.5,84,0.00,OVC,,0.00,WeatherDisplay:10.37,2013-02-12 11:06:00,
2013-02-12 05:11:00,16.3,12.3,29.98,SSW,202,2.7,3.5,84,0.00,OVC,,0.00,WeatherDisplay:10.37,2013-02-12 11:11:00,
2013-02-12 05:16:00,16.3,12.3,29.98,South,180,0.5,1.1,84,0.00,OVC,,0.00,WeatherDisplay:10.37,2013-02-12 11:16:00,
2013-02-12 05:21:00,16.3,12.3,29.98,SSW,202,1.7,3.5,84,0.00,OVC,,0.00,WeatherDisplay:10.37,2013-02-12 11:21:00,
2013-02-12 05:26:00,16.5,12.5,29.98,South,180,0.8,2.3,84,0.00,OVC,,0.00,WeatherDisplay:10.37,2013-02-12 11:26:00,
2013-02-12 05:31:00,16.5,12.5,29.98,South,180,1.7,2.3,84,0.00,OVC,,0.00,WeatherDisplay:10.37,2013-02-12 11:31:00,
2013-02-12 05:37:00,16.5,12.5,29.98,South,180,1.7,3.5,84,0.00,OVC,,0.00,WeatherDisplay:10.37,2013-02-12 11:37:00,
2013-02-12 05:42:00,16.7,12.4,29.98,SSW,202,1.9,3.5,83,0.00,OVC,,0.00,WeatherDisplay:10.37,2013-02-12 11:42:00,
2013-02-12 05:47:00,16.7,12.4,29.98,SSW,202,2.4,2.4,83,0.00,OVC,,0.00,WeatherDisplay:10.37,2013-02-12 11:47:00,
2013-02-12 05:52:00,16.7,12.4,29.98,WSW,248,2.0,2.3,83,0.00,OVC,,0.00,WeatherDisplay:10.37,2013-02-12 11:52:00,
2013-02-12 05:57:00,16.9,12.6,29.98,SSW,202,2.7,3.7,83,0.00,OVC,,0.00,WeatherDisplay:10.37,2013-02-12 11:57:00,
2013-02-12 06:02:00,16.9,12.6,29.98,South,180,2.4,3.2,83,0.00,OVC,,0.00,WeatherDisplay:10.37,2013-02-12 12:02:00,
2013-02-12 06:07:00,16.9,12.6,29.98,SW,225,3.7,4.6,83,0.00,OVC,,0.00,WeatherDisplay:10.37,2013-02-12 12:07:00,
2013-02-12 06:12:00,16.9,12.6,29.97,SW,225,3.2,3.5,83,0.00,OVC,,0.00,WeatherDisplay:10.37,2013-02-12 12:12:00,
2013-02-12 06:17:00,16.9,12.6,29.97,SW,225,3.2,3.5,83,0.00,OVC,,0.00,WeatherDisplay:10.37,2013-02-12 12:17:00,
2013-02-12 06:22:00,16.9,12.6,29.97,SW,225,3.2,3.5,83,0.00,OVC,,0.00,WeatherDisplay:10.37,2013-02-12 12:22:00,
2013-02-12 06:28:00,16.9,12.6,29.97,SW,225,3.2,3.5,83,0.00,OVC,,0.00,WeatherDisplay:10.37,2013-02-12 12:28:00,
2013-02-12 06:33:00,16.9,12.6,29.97,SW,225,3.2,3.5,83,0.00,OVC,,0.00,WeatherDisplay:10.37,2013-02-12 12:33:00,
2013-02-12 06:38:00,16.9,12.6,29.97,SW,225,3.2,3.5,83,0.00,OVC,,0.00,WeatherDisplay:10.37,2013-02-12 12:38:00,
2013-02-12 06:43:00,16.9,12.6,29.97,SW,225,3.2,3.5,83,0.00,OVC,,0.00,WeatherDisplay:10.37,2013-02-12 12:43:00,
2013-02-12 06:48:00,16.9,12.6,29.97,SW,225,3.2,3.5,83,0.00,OVC,,0.00,WeatherDisplay:10.37,2013-02-12 12:48:00,
2013-02-12 06:53:00,16.9,12.6,29.97,SW,225,3.2,3.5,83,0.00,SCT,,0.00,WeatherDisplay:10.37,2013-02-12 12:53:00,
2013-02-12 06:58:00,16.9,12.6,29.97,SW,225,3.2,3.5,83,0.00,SCT,,0.00,WeatherDisplay:10.37,2013-02-12 12:58:00,
2013-02-12 07:03:00,16.9,12.6,29.97,SW,225,3.2,3.5,83,0.00,CLR,,0.00,WeatherDisplay:10.37,2013-02-12 13:03:00,
2013-02-12 07:08:00,16.9,12.6,29.97,SW,225,3.2,3.5,83,0.00,CLR,,0.00,WeatherDisplay:10.37,2013-02-12 13:08:00,
2013-02-12 07:13:00,16.9,12.6,29.97,SW,225,3.2,3.5,83,0.00,CLR,,0.00,WeatherDisplay:10.37,2013-02-12 13:13:00,
2013-02-12 07:19:00,16.9,12.6,29.97,SW,225,3.2,3.5,83,0.00,CLR,,0.00,WeatherDisplay:10.37,2013-02-12 13:19:00,
2013-02-12 07:24:00,12.2,9.8,29.96,South,180,0.0,0.0,90,0.00,CLR,,0.00,WeatherDisplay:10.37,2013-02-12 13:24:00,
2013-02-12 07:29:00,12.2,9.8,29.96,South,180,1.1,1.1,90,0.00,CLR,,0.00,WeatherDisplay:10.37,2013-02-12 13:29:00,
2013-02-12 07:34:00,12.2,10.1,29.94,SSW,202,0.5,2.2,91,0.00,CLR,,0.00,WeatherDisplay:10.37,2013-02-12 13:34:00,
2013-02-12 07:39:00,12.4,10.3,29.94,ESE,112,1.0,2.3,91,0.00,CLR,,0.00,WeatherDisplay:10.37,2013-02-12 13:39:00,
2013-02-12 07:44:00,12.9,10.8,29.94,SSW,202,2.9,3.7,91,0.00,CLR,,0.00,WeatherDisplay:10.37,2013-02-12 13:44:00,
2013-02-12 07:49:00,13.3,10.9,29.94,South,180,2.3,3.5,90,0.00,CLR,,0.00,WeatherDisplay:10.37,2013-02-12 13:49:00,
2013-02-12 07:54:00,13.8,11.4,29.94,South,180,1.9,4.6,90,0.00,CLR,,0.00,WeatherDisplay:10.37,2013-02-12 13:54:00,
2013-02-12 07:59:00,14.2,11.3,29.94,South,180,3.7,3.7,88,0.00,CLR,,0.00,WeatherDisplay:10.37,2013-02-12 13:59:00,
2013-02-12 08:04:00,14.7,11.5,29.94,South,180,2.4,3.7,87,0.00,CLR,,0.00,WeatherDisplay:10.37,2013-02-12 14:04:00,
2013-02-12 08:10:00,15.1,11.7,29.94,SE,135,2.6,3.5,86,0.00,CLR,,0.00,WeatherDisplay:10.37,2013-02-12 14:10:00,
2013-02-12 08:15:00,15.6,11.9,29.94,South,180,2.8,3.7,85,0.00,CLR,,0.00,WeatherDisplay:10.37,2013-02-12 14:15:00,
2013-02-12 08:20:00,16.2,12.5,29.94,South,180,3.3,3.7,85,0.00,CLR,,0.00,WeatherDisplay:10.37,2013-02-12 14:20:00,
2013-02-12 08:25:00,16.7,12.7,29.93,South,180,3.3,4.6,84,0.00,CLR,,0.00,WeatherDisplay:10.37,2013-02-12 14:25:00,
2013-02-12 08:30:00,17.2,12.9,29.93,SSE,158,2.8,4.7,83,0.00,CLR,,0.00,WeatherDisplay:10.37,2013-02-12 14:30:00,
2013-02-12 08:35:00,18.0,13.2,29.94,SSW,202,2.8,3.7,81,0.00,CLR,,0.00,WeatherDisplay:10.37,2013-02-12 14:35:00,
2013-02-12 08:40:00,18.7,13.6,29.94,SSW,202,2.9,3.5,80,0.00,CLR,,0.00,WeatherDisplay:10.37,2013-02-12 14:40:00,
2013-02-12 08:45:00,19.0,13.8,29.93,SSW,202,4.4,4.7,80,0.00,CLR,,0.00,WeatherDisplay:10.37,2013-02-12 14:45:00,
2013-02-12 08:50:00,19.8,14.3,29.93,SSW,202,3.3,4.6,79,0.00,CLR,,0.00,WeatherDisplay:10.37,2013-02-12 14:50:00,
2013-02-12 08:55:00,19.9,14.1,29.93,South,180,2.7,4.6,78,0.00,CLR,,0.00,WeatherDisplay:10.37,2013-02-12 14:55:00,
2013-02-12 09:01:00,20.7,14.6,29.93,South,180,2.9,4.6,77,0.00,CLR,,0.00,WeatherDisplay:10.37,2013-02-12 15:01:00,
2013-02-12 09:06:00,21.0,14.9,29.93,SSE,158,2.7,3.5,77,0.00,CLR,,0.00,WeatherDisplay:10.37,2013-02-12 15:06:00,
2013-02-12 09:11:00,21.9,15.5,29.92,SSW,202,7.6,9.4,76,0.00,CLR,,0.00,WeatherDisplay:10.37,2013-02-12 15:11:00,
2013-02-12 09:16:00,22.6,15.9,29.92,South,180,2.6,3.7,75,0.00,CLR,,0.00,WeatherDisplay:10.37,2013-02-12 15:16:00,
2013-02-12 09:21:00,23.9,16.5,29.92,SW,225,4.5,6.3,73,0.00,CLR,,0.00,WeatherDisplay:10.37,2013-02-12 15:21:00,
2013-02-12 09:26:00,24.3,16.6,29.92,South,180,5.2,5.8,72,0.00,CLR,,0.00,WeatherDisplay:10.37,2013-02-12 15:26:00,
2013-02-12 09:31:00,24.1,16.4,29.92,SSW,202,4.8,6.9,72,0.00,CLR,,0.00,WeatherDisplay:10.37,2013-02-12 15:31:00,
2013-02-12 09:36:00,24.6,16.9,29.92,WSW,248,3.5,5.8,72,0.00,CLR,,0.00,WeatherDisplay:10.37,2013-02-12 15:36:00,
2013-02-12 09:41:00,24.8,17.1,29.92,West,270,5.0,6.9,72,0.00,CLR,,0.00,WeatherDisplay:10.37,2013-02-12 15:41:00,
2013-02-12 09:46:00,25.0,16.9,29.91,SSW,202,5.0,5.8,71,0.00,CLR,,0.00,WeatherDisplay:10.37,2013-02-12 15:46:00,
2013-02-12 09:52:00,25.2,17.1,29.91,SSW,202,5.4,6.9,71,0.00,CLR,,0.00,WeatherDisplay:10.37,2013-02-12 15:52:00,
2013-02-12 09:57:00,25.3,17.2,29.91,WSW,248,3.2,6.8,71,0.00,CLR,,0.00,WeatherDisplay:10.37,2013-02-12 15:57:00,
2013-02-12 10:02:00,25.3,17.2,29.91,WSW,248,6.1,9.2,71,0.00,CLR,,0.00,WeatherDisplay:10.37,2013-02-12 16:02:00,
2013-02-12 10:07:00,25.3,17.2,29.91,WSW,248,8.8,9.2,71,0.00,CLR,,0.00,WeatherDisplay:10.37,2013-02-12 16:07:00,
2013-02-12 10:12:00,25.2,17.4,29.91,SSW,202,4.3,5.8,72,0.00,CLR,,0.00,WeatherDisplay:10.37,2013-02-12 16:12:00,
2013-02-12 10:17:00,26.1,18.0,29.91,SSW,202,4.9,7.3,71,0.00,CLR,,0.00,WeatherDisplay:10.37,2013-02-12 16:17:00,
2013-02-12 10:22:00,26.2,17.7,29.91,SW,225,4.8,7.8,70,0.00,CLR,,0.00,WeatherDisplay:10.37,2013-02-12 16:22:00,
2013-02-12 10:27:00,26.2,17.7,29.91,SW,225,6.6,6.9,70,0.00,CLR,,0.00,WeatherDisplay:10.37,2013-02-12 16:27:00,
2013-02-12 10:32:00,26.4,17.9,29.91,SW,225,5.2,6.9,70,0.00,CLR,,0.00,WeatherDisplay:10.37,2013-02-12 16:32:00,
2013-02-12 10:37:00,26.6,17.8,29.90,South,180,7.5,10.4,69,0.00,CLR,,0.00,WeatherDisplay:10.37,2013-02-12 16:37:00,
2013-02-12 10:43:00,27.0,18.2,29.90,SW,225,5.5,6.9,69,0.00,CLR,,0.00,WeatherDisplay:10.37,2013-02-12 16:43:00,
2013-02-12 10:48:00,27.3,18.5,29.90,WSW,248,4.9,5.8,69,0.00,CLR,,0.00,WeatherDisplay:10.37,2013-02-12 16:48:00,
2013-02-12 10:53:00,27.5,18.3,29.90,SSE,158,6.0,9.2,68,0.00,CLR,,0.00,WeatherDisplay:10.37,2013-02-12 16:53:00,
2013-02-12 10:58:00,28.0,18.5,29.90,West,270,3.6,5.8,67,0.00,CLR,,0.00,WeatherDisplay:10.37,2013-02-12 16:58:00,
2013-02-12 11:03:00,28.8,18.5,29.90,WNW,292,4.8,10.4,65,0.00,CLR,,0.00,WeatherDisplay:10.37,2013-02-12 17:03:00,
2013-02-12 11:08:00,29.5,18.8,29.90,SSW,202,4.3,5.8,64,0.00,CLR,,0.00,WeatherDisplay:10.37,2013-02-12 17:08:00,
2013-02-12 11:13:00,29.5,18.4,29.90,SW,225,6.8,9.4,63,0.00,SCT,,0.00,WeatherDisplay:10.37,2013-02-12 17:13:00,
2013-02-12 11:18:00,29.1,18.8,29.90,SSW,202,5.1,6.9,65,0.00,SCT,,0.00,WeatherDisplay:10.37,2013-02-12 17:18:00,
2013-02-12 11:23:00,29.5,19.5,29.90,SW,225,6.5,8.8,66,0.00,SCT,,0.00,WeatherDisplay:10.37,2013-02-12 17:23:00,
2013-02-12 11:28:00,30.0,20.0,29.90,West,270,6.6,9.2,66,0.00,SCT,,0.00,WeatherDisplay:10.37,2013-02-12 17:28:00,
2013-02-12 11:34:00,30.4,20.7,29.89,SSW,202,5.9,6.9,67,0.00,SCT,,0.00,WeatherDisplay:10.37,2013-02-12 17:34:00,
2013-02-12 11:39:00,30.4,21.1,29.89,WSW,248,6.6,8.1,68,0.00,SCT,,0.00,WeatherDisplay:10.37,2013-02-12 17:39:00,
2013-02-12 11:44:00,30.9,21.6,29.89,West,270,3.9,4.6,68,0.00,SCT,,0.00,WeatherDisplay:10.37,2013-02-12 17:44:00,
2013-02-12 11:49:00,30.7,21.4,29.88,ENE,68,4.0,4.7,68,0.00,SCT,,0.00,WeatherDisplay:10.37,2013-02-12 17:49:00,
2013-02-12 11:54:00,31.6,21.5,29.88,WSW,248,4.9,10.4,66,0.00,SCT,,0.00,WeatherDisplay:10.37,2013-02-12 17:54:00,
2013-02-12 11:59:00,31.8,21.7,29.88,West,270,7.5,9.2,66,0.00,SCT,,0.00,WeatherDisplay:10.37,2013-02-12 17:59:00,
2013-02-12 12:04:00,31.3,21.6,29.88,SW,225,7.1,8.1,67,0.00,CLR,,0.00,WeatherDisplay:10.37,2013-02-12 18:04:00,
2013-02-12 12:09:00,31.6,21.9,29.88,South,180,4.1,5.8,67,0.00,CLR,,0.00,WeatherDisplay:10.37,2013-02-12 18:09:00,
2013-02-12 12:14:00,32.0,22.3,29.88,West,270,5.0,7.3,67,0.00,CLR,,0.00,WeatherDisplay:10.37,2013-02-12 18:14:00,
2013-02-12 12:19:00,32.5,22.4,29.88,WSW,248,3.3,8.1,66,0.00,CLR,,0.00,WeatherDisplay:10.37,2013-02-12 18:19:00,
2013-02-12 12:25:00,33.6,23.1,29.86,SSW,202,5.4,8.1,65,0.00,CLR,,0.00,WeatherDisplay:10.37,2013-02-12 18:25:00,
2013-02-12 12:30:00,33.1,22.6,29.86,WSW,248,6.3,6.3,65,0.00,CLR,,0.00,WeatherDisplay:10.37,2013-02-12 18:30:00,
2013-02-12 12:35:00,33.4,22.5,29.86,SW,225,5.6,6.9,64,0.00,CLR,,0.00,WeatherDisplay:10.37,2013-02-12 18:35:00,
2013-02-12 12:40:00,33.8,22.5,29.86,West,270,5.3,10.4,63,0.00,CLR,,0.00,WeatherDisplay:10.37,2013-02-12 18:40:00,
2013-02-12 12:45:00,33.4,22.1,29.86,West,270,6.6,8.1,63,0.00,CLR,,0.00,WeatherDisplay:10.37,2013-02-12 18:45:00,
2013-02-12 12:50:00,32.9,22.0,29.86,West,270,5.8,6.3,64,0.00,CLR,,0.00,WeatherDisplay:10.37,2013-02-12 18:50:00,
2013-02-12 12:55:00,34.2,22.5,29.86,WSW,248,7.9,10.4,62,0.00,CLR,,0.00,WeatherDisplay:10.37,2013-02-12 18:55:00,
2013-02-12 13:00:00,33.3,22.1,29.85,WSW,248,3.9,5.8,63,0.00,CLR,,0.00,WeatherDisplay:10.37,2013-02-12 19:00:00,
2013-02-12 13:05:00,33.4,22.1,29.85,West,270,4.2,5.8,63,0.00,CLR,,0.00,WeatherDisplay:10.37,2013-02-12 19:05:00,
2013-02-12 13:10:00,34.2,22.9,29.85,West,270,5.8,5.8,63,0.00,CLR,,0.00,WeatherDisplay:10.37,2013-02-12 19:10:00,
2013-02-12 13:16:00,34.0,22.3,29.85,SSE,158,5.4,7.3,62,0.00,CLR,,0.00,WeatherDisplay:10.37,2013-02-12 19:16:00,
2013-02-12 13:21:00,33.8,22.1,29.84,WSW,248,4.5,6.9,62,0.00,CLR,,0.00,WeatherDisplay:10.37,2013-02-12 19:21:00,
2013-02-12 13:26:00,34.2,22.5,29.84,West,270,5.6,8.1,62,0.01,RA,,0.01,WeatherDisplay:10.37,2013-02-12 19:26:00,
2013-02-12 13:31:00,33.8,22.1,29.84,WSW,248,5.5,6.8,62,0.01,RA,,0.01,WeatherDisplay:10.37,2013-02-12 19:31:00,
2013-02-12 13:36:00,34.5,22.4,29.84,SW,225,6.0,6.8,61,0.01,CLR,,0.01,WeatherDisplay:10.37,2013-02-12 19:36:00,
2013-02-12 13:41:00,35.6,22.7,29.84,West,270,6.8,8.1,59,0.01,CLR,,0.01,WeatherDisplay:10.37,2013-02-12 19:41:00,
2013-02-12 13:46:00,34.9,22.4,29.84,WSW,248,3.7,5.8,60,0.01,CLR,,0.01,WeatherDisplay:10.37,2013-02-12 19:46:00,
2013-02-12 13:51:00,35.1,22.2,29.84,SW,225,5.8,9.2,59,0.01,CLR,,0.01,WeatherDisplay:10.37,2013-02-12 19:51:00,
2013-02-12 13:56:00,35.1,22.2,29.84,SW,225,5.8,5.8,59,0.01,CLR,,0.01,WeatherDisplay:10.37,2013-02-12 19:56:00,
2013-02-12 14:02:00,34.2,22.5,29.83,South,180,4.5,4.7,62,0.01,CLR,,0.01,WeatherDisplay:10.37,2013-02-12 20:02:00,
2013-02-12 14:07:00,34.9,22.8,29.83,West,270,5.6,8.1,61,0.01,CLR,,0.01,WeatherDisplay:10.37,2013-02-12 20:07:00,
2013-02-12 14:12:00,34.5,22.4,29.83,WSW,248,5.7,6.9,61,0.01,CLR,,0.01,WeatherDisplay:10.37,2013-02-12 20:12:00,
2013-02-12 14:17:00,34.5,22.8,29.83,SW,225,6.9,7.3,62,0.01,CLR,,0.01,WeatherDisplay:10.37,2013-02-12 20:17:00,
2013-02-12 14:22:00,34.5,22.8,29.83,WSW,248,6.0,6.9,62,0.01,CLR,,0.01,WeatherDisplay:10.37,2013-02-12 20:22:00,
2013-02-12 14:27:00,34.2,22.9,29.83,South,180,4.9,6.3,63,0.00,CLR,,0.01,WeatherDisplay:10.37,2013-02-12 20:27:00,
2013-02-12 14:32:00,34.9,23.2,29.83,West,270,7.3,7.3,62,0.01,RA,,0.02,WeatherDisplay:10.37,2013-02-12 20:32:00,
2013-02-12 14:37:00,34.5,22.8,29.83,SW,225,5.7,6.9,62,0.01,RA,,0.02,WeatherDisplay:10.37,2013-02-12 20:37:00,
2013-02-12 14:42:00,34.9,23.2,29.83,SW,225,7.1,8.1,62,0.01,CLR,,0.02,WeatherDisplay:10.37,2013-02-12 20:42:00,
2013-02-12 14:47:00,34.3,23.0,29.83,West,270,5.1,8.1,63,0.01,CLR,,0.02,WeatherDisplay:10.37,2013-02-12 20:47:00,
2013-02-12 14:52:00,33.8,22.9,29.83,SW,225,3.5,5.8,64,0.02,RA,,0.03,WeatherDisplay:10.37,2013-02-12 20:52:00,
2013-02-12 14:58:00,34.7,23.0,29.83,WSW,248,4.3,5.8,62,0.02,RA,,0.03,WeatherDisplay:10.37,2013-02-12 20:58:00,
2013-02-12 15:03:00,34.3,23.0,29.83,SW,225,6.1,6.9,63,0.02,CLR,,0.03,WeatherDisplay:10.37,2013-02-12 21:03:00,
2013-02-12 15:08:00,34.3,23.4,29.83,WSW,248,3.7,6.9,64,0.03,RA,,0.04,WeatherDisplay:10.37,2013-02-12 21:08:00,
2013-02-12 15:13:00,35.1,23.8,29.83,SW,225,6.5,8.1,63,0.03,RA,,0.04,WeatherDisplay:10.37,2013-02-12 21:13:00,
2013-02-12 15:18:00,35.1,23.8,29.83,WSW,248,5.2,5.8,63,0.03,CLR,,0.04,WeatherDisplay:10.37,2013-02-12 21:18:00,
2013-02-12 15:23:00,34.5,23.2,29.84,SW,225,6.9,9.2,63,0.03,CLR,,0.04,WeatherDisplay:10.37,2013-02-12 21:23:00,
2013-02-12 15:28:00,34.2,23.3,29.84,WSW,248,5.3,7.3,64,0.04,RA,,0.05,WeatherDisplay:10.37,2013-02-12 21:28:00,
2013-02-12 15:33:00,34.7,23.4,29.84,WSW,248,6.3,9.2,63,0.03,RA,,0.05,WeatherDisplay:10.37,2013-02-12 21:33:00,
2013-02-12 15:38:00,34.2,23.3,29.84,WSW,248,5.9,8.1,64,0.03,CLR,,0.05,WeatherDisplay:10.37,2013-02-12 21:38:00,
2013-02-12 15:44:00,34.2,23.7,29.84,West,270,4.7,4.7,65,0.03,CLR,,0.05,WeatherDisplay:10.37,2013-02-12 21:44:00,
2013-02-12 15:49:00,34.0,23.5,29.83,WNW,292,5.1,6.9,65,0.04,RA,,0.06,WeatherDisplay:10.37,2013-02-12 21:49:00,
2013-02-12 15:54:00,34.0,23.5,29.83,West,270,3.8,5.8,65,0.03,RA,,0.06,WeatherDisplay:10.37,2013-02-12 21:54:00,
2013-02-12 15:59:00,33.6,23.4,29.83,WSW,248,4.5,6.8,66,0.03,CLR,,0.06,WeatherDisplay:10.37,2013-02-12 21:59:00,
2013-02-12 16:04:00,33.3,23.2,29.83,West,270,5.5,8.1,66,0.04,RA,,0.07,WeatherDisplay:10.37,2013-02-12 22:04:00,
2013-02-12 16:09:00,32.9,23.1,29.83,WNW,292,5.4,6.9,67,0.03,RA,,0.07,WeatherDisplay:10.37,2013-02-12 22:09:00,
2013-02-12 16:14:00,32.5,22.8,29.83,WNW,292,5.3,5.8,67,0.03,CLR,,0.07,WeatherDisplay:10.37,2013-02-12 22:14:00,
2013-02-12 16:19:00,32.5,22.8,29.83,South,180,5.6,6.9,67,0.03,CLR,,0.07,WeatherDisplay:10.37,2013-02-12 22:19:00,
2013-02-12 16:24:00,33.6,23.4,29.83,West,270,4.2,7.3,66,0.03,CLR,,0.07,WeatherDisplay:10.37,2013-02-12 22:24:00,
2013-02-12 16:29:00,32.9,22.4,29.83,WSW,248,6.0,8.1,65,0.03,RA,,0.08,WeatherDisplay:10.37,2013-02-12 22:29:00,
2013-02-12 16:35:00,32.4,22.7,29.83,West,270,6.5,7.8,67,0.03,RA,,0.08,WeatherDisplay:10.37,2013-02-12 22:35:00,
2013-02-12 16:40:00,32.2,22.5,29.83,WSW,248,6.1,6.9,67,0.03,CLR,,0.08,WeatherDisplay:10.37,2013-02-12 22:40:00,
2013-02-12 16:45:00,32.0,22.6,29.83,West,270,4.4,5.8,68,0.03,CLR,,0.08,WeatherDisplay:10.37,2013-02-12 22:45:00,
2013-02-12 16:50:00,31.5,22.1,29.83,West,270,5.7,7.3,68,0.02,CLR,,0.08,WeatherDisplay:10.37,2013-02-12 22:50:00,
2013-02-12 16:55:00,31.5,22.1,29.83,West,270,8.8,9.2,68,0.02,CLR,,0.08,WeatherDisplay:10.37,2013-02-12 22:55:00,
2013-02-12 17:00:00,31.1,22.1,29.83,South,180,3.3,3.7,69,0.02,CLR,,0.08,WeatherDisplay:10.37,2013-02-12 23:00:00,
2013-02-12 17:05:00,30.7,22.1,29.83,NW,315,5.9,6.8,70,0.01,CLR,,0.08,WeatherDisplay:10.37,2013-02-12 23:05:00,
2013-02-12 17:10:00,29.8,21.5,29.83,West,270,6.1,6.9,71,0.01,CLR,,0.08,WeatherDisplay:10.37,2013-02-12 23:10:00,
2013-02-12 17:15:00,29.7,21.4,29.83,SW,225,4.7,4.7,71,0.01,CLR,,0.08,WeatherDisplay:10.37,2013-02-12 23:15:00,
2013-02-12 17:20:00,29.3,21.4,29.83,West,270,3.4,4.6,72,0.01,CLR,,0.08,WeatherDisplay:10.37,2013-02-12 23:20:00,
2013-02-12 17:26:00,28.8,20.9,29.83,WSW,248,3.0,5.8,72,0.01,CLR,,0.08,WeatherDisplay:10.37,2013-02-12 23:26:00,
2013-02-12 17:31:00,28.4,20.5,29.83,West,270,4.5,5.8,72,0.00,CLR,,0.08,WeatherDisplay:10.37,2013-02-12 23:31:00,
2013-02-12 17:36:00,28.0,20.5,29.83,West,270,2.9,3.5,73,0.00,CLR,,0.08,WeatherDisplay:10.37,2013-02-12 23:36:00,
2013-02-12 17:41:00,27.7,20.2,29.83,WSW,248,2.3,3.2,73,0.00,CLR,,0.08,WeatherDisplay:10.37,2013-02-12 23:41:00,
2013-02-12 17:46:00,27.1,19.6,29.83,West,270,2.6,3.2,73,0.00,CLR,,0.08,WeatherDisplay:10.37,2013-02-12 23:46:00,
2013-02-12 17:51:00,27.0,19.5,29.83,West,270,2.1,2.3,73,0.00,CLR,,0.08,WeatherDisplay:10.37,2013-02-12 23:51:00,
2013-02-12 17:56:00,26.6,19.4,29.83,WSW,248,2.1,3.5,74,0.00,CLR,,0.08,WeatherDisplay:10.37,2013-02-12 23:56:00,
2013-02-12 18:01:00,26.2,19.0,29.83,SW,225,2.2,4.6,74,0.00,CLR,,0.08,WeatherDisplay:10.37,2013-02-13 00:01:00,
2013-02-12 18:06:00,26.1,19.3,29.83,SSW,202,2.0,2.3,75,0.00,CLR,,0.08,WeatherDisplay:10.37,2013-02-13 00:06:00,
2013-02-12 18:11:00,25.7,18.9,29.83,SSW,202,1.5,2.3,75,0.00,CLR,,0.08,WeatherDisplay:10.37,2013-02-13 00:11:00,
2013-02-12 18:17:00,25.3,18.8,29.83,SSW,202,2.9,3.5,76,0.00,CLR,,0.08,WeatherDisplay:10.37,2013-02-13 00:17:00,
2013-02-12 18:22:00,25.0,18.5,29.83,SSW,202,1.5,2.3,76,0.00,CLR,,0.08,WeatherDisplay:10.37,2013-02-13 00:22:00,
2013-02-12 18:27:00,24.8,18.3,29.83,WSW,248,1.5,2.2,76,0.00,CLR,,0.08,WeatherDisplay:10.37,2013-02-13 00:27:00,
2013-02-12 18:32:00,24.4,17.9,29.83,SSW,202,0.7,2.3,76,0.00,CLR,,0.08,WeatherDisplay:10.37,2013-02-13 00:32:00,
2013-02-12 18:37:00,23.9,17.7,29.83,SSW,202,2.0,2.7,77,0.00,CLR,,0.08,WeatherDisplay:10.37,2013-02-13 00:37:00,
2013-02-12 18:42:00,23.7,17.8,29.83,WSW,248,2.9,3.5,78,0.00,CLR,,0.08,WeatherDisplay:10.37,2013-02-13 00:42:00,
2013-02-12 18:47:00,23.7,17.8,29.83,SSE,158,2.4,4.7,78,0.00,CLR,,0.08,WeatherDisplay:10.37,2013-02-13 00:47:00,
2013-02-12 18:53:00,23.7,17.8,29.83,SSW,202,2.8,3.5,78,0.00,CLR,,0.08,WeatherDisplay:10.37,2013-02-13 00:53:00,
2013-02-12 18:58:00,23.7,17.8,29.83,West,270,2.7,2.7,78,0.00,CLR,,0.08,WeatherDisplay:10.37,2013-02-13 00:58:00,
2013-02-12 19:03:00,23.4,17.6,29.83,SW,225,2.0,2.3,78,0.00,CLR,,0.08,WeatherDisplay:10.37,2013-02-13 01:03:00,
2013-02-12 19:08:00,23.4,17.8,29.83,SW,225,3.2,4.6,79,0.00,CLR,,0.08,WeatherDisplay:10.37,2013-02-13 01:08:00,
2013-02-12 19:13:00,23.2,17.7,29.82,SW,225,2.7,3.7,79,0.00,CLR,,0.08,WeatherDisplay:10.37,2013-02-13 01:13:00,
2013-02-12 19:18:00,23.2,17.7,29.82,SSW,202,2.1,2.7,79,0.00,CLR,,0.08,WeatherDisplay:10.37,2013-02-13 01:18:00,
2013-02-12 19:23:00,23.2,17.7,29.82,SSW,202,2.2,3.5,79,0.00,CLR,,0.08,WeatherDisplay:10.37,2013-02-13 01:23:00,
2013-02-12 19:28:00,23.0,17.7,29.82,West,270,2.3,3.5,80,0.00,CLR,,0.08,WeatherDisplay:10.37,2013-02-13 01:28:00,
2013-02-12 19:33:00,23.0,17.7,29.82,West,270,2.7,3.7,80,0.00,CLR,,0.08,WeatherDisplay:10.37,2013-02-13 01:33:00,
2013-02-12 19:38:00,23.0,17.7,29.82,SSW,202,2.9,4.6,80,0.00,CLR,,0.08,WeatherDisplay:10.37,2013-02-13 01:38:00,
2013-02-12 19:44:00,23.0,17.7,29.82,West,270,2.6,4.6,80,0.00,CLR,,0.08,WeatherDisplay:10.37,2013-02-13 01:44:00,
2013-02-12 19:49:00,23.2,17.9,29.82,WSW,248,2.8,4.6,80,0.00,CLR,,0.08,WeatherDisplay:10.37,2013-02-13 01:49:00,
2013-02-12 19:54:00,23.5,17.9,29.82,SW,225,3.7,4.7,79,0.00,CLR,,0.08,WeatherDisplay:10.37,2013-02-13 01:54:00,
2013-02-12 19:59:00,23.5,17.9,29.82,WSW,248,2.7,3.5,79,0.00,CLR,,0.08,WeatherDisplay:10.37,2013-02-13 01:59:00,
2013-02-12 20:04:00,23.7,18.1,29.82,WSW,248,4.5,7.3,79,0.00,CLR,,0.08,WeatherDisplay:10.37,2013-02-13 02:04:00,
2013-02-12 20:09:00,23.7,18.1,29.82,West,270,4.4,6.3,79,0.00,CLR,,0.08,WeatherDisplay:10.37,2013-02-13 02:09:00,
2013-02-12 20:14:00,23.9,18.0,29.82,WSW,248,4.9,5.8,78,0.00,CLR,,0.08,WeatherDisplay:10.37,2013-02-13 02:14:00,
2013-02-12 20:19:00,23.9,18.0,29.82,WSW,248,3.2,5.8,78,0.00,CLR,,0.08,WeatherDisplay:10.37,2013-02-13 02:19:00,
2013-02-12 20:24:00,23.7,17.8,29.82,West,270,2.8,3.5,78,0.00,CLR,,0.08,WeatherDisplay:10.37,2013-02-13 02:24:00,
2013-02-12 20:29:00,23.7,17.8,29.82,West,270,3.6,5.8,78,0.00,CLR,,0.08,WeatherDisplay:10.37,2013-02-13 02:29:00,
2013-02-12 20:35:00,23.4,17.6,29.82,WSW,248,3.9,4.6,78,0.00,CLR,,0.08,WeatherDisplay:10.37,2013-02-13 02:35:00,
2013-02-12 20:40:00,23.5,17.6,29.82,West,270,4.0,6.3,78,0.00,CLR,,0.08,WeatherDisplay:10.37,2013-02-13 02:40:00,
2013-02-12 20:45:00,23.5,17.6,29.83,West,270,2.7,3.5,78,0.00,CLR,,0.08,WeatherDisplay:10.37,2013-02-13 02:45:00,
2013-02-12 20:50:00,23.2,17.4,29.83,WSW,248,2.6,3.5,78,0.00,CLR,,0.08,WeatherDisplay:10.37,2013-02-13 02:50:00,
2013-02-12 20:55:00,23.2,17.4,29.83,West,270,2.2,3.5,78,0.00,CLR,,0.08,WeatherDisplay:10.37,2013-02-13 02:55:00,
2013-02-12 21:00:00,23.2,17.4,29.82,West,270,2.2,2.3,78,0.00,CLR,,0.08,WeatherDisplay:10.37,2013-02-13 03:00:00,
2013-02-12 21:05:00,23.0,17.2,29.82,West,270,3.5,4.2,78,0.00,CLR,,0.08,WeatherDisplay:10.37,2013-02-13 03:05:00,
2013-02-12 21:10:00,22.8,17.0,29.82,WSW,248,4.0,5.8,78,0.00,CLR,,0.08,WeatherDisplay:10.37,2013-02-13 03:10:00,
2013-02-12 21:15:00,22.6,16.8,29.82,West,270,2.8,3.5,78,0.00,CLR,,0.08,WeatherDisplay:10.37,2013-02-13 03:15:00,
2013-02-12 21:20:00,22.6,16.8,29.82,West,270,2.8,3.5,78,0.00,CLR,,0.08,WeatherDisplay:10.37,2013-02-13 03:20:00,
2013-02-12 21:26:00,22.6,16.8,29.82,SSW,202,2.7,4.6,78,0.00,CLR,,0.08,WeatherDisplay:10.37,2013-02-13 03:26:00,
2013-02-12 21:31:00,22.5,16.7,29.82,West,270,3.5,4.7,78,0.00,CLR,,0.08,WeatherDisplay:10.37,2013-02-13 03:31:00,
2013-02-12 21:36:00,22.5,16.7,29.82,WSW,248,2.6,3.7,78,0.00,CLR,,0.08,WeatherDisplay:10.37,2013-02-13 03:36:00,
2013-02-12 21:41:00,22.3,16.8,29.82,WNW,292,4.3,5.8,79,0.00,CLR,,0.08,WeatherDisplay:10.37,2013-02-13 03:41:00,
2013-02-12 21:46:00,22.1,16.6,29.82,West,270,3.7,4.6,79,0.00,CLR,,0.08,WeatherDisplay:10.37,2013-02-13 03:46:00,
2013-02-12 21:51:00,21.9,16.4,29.82,SSW,202,2.6,3.5,79,0.00,CLR,,0.08,WeatherDisplay:10.37,2013-02-13 03:51:00,
2013-02-12 21:56:00,21.7,16.2,29.82,West,270,2.6,4.6,79,0.00,CLR,,0.08,WeatherDisplay:10.37,2013-02-13 03:56:00,
2013-02-12 22:01:00,21.6,16.1,29.81,WSW,248,2.1,3.2,79,0.00,CLR,,0.08,WeatherDisplay:10.37,2013-02-13 04:01:00,
2013-02-12 22:06:00,21.4,16.2,29.81,West,270,3.4,3.7,80,0.00,CLR,,0.08,WeatherDisplay:10.37,2013-02-13 04:06:00,
2013-02-12 22:11:00,21.2,16.0,29.81,SSW,202,2.9,3.5,80,0.00,CLR,,0.08,WeatherDisplay:10.37,2013-02-13 04:11:00,
2013-02-12 22:17:00,21.2,16.3,29.81,West,270,4.6,5.8,81,0.00,CLR,,0.08,WeatherDisplay:10.37,2013-02-13 04:17:00,
2013-02-12 22:22:00,21.2,16.3,29.81,WSW,248,2.8,3.5,81,0.00,CLR,,0.08,WeatherDisplay:10.37,2013-02-13 04:22:00,
2013-02-12 22:27:00,21.0,16.1,29.81,West,270,2.6,3.5,81,0.00,CLR,,0.08,WeatherDisplay:10.37,2013-02-13 04:27:00,
2013-02-12 22:32:00,21.0,16.1,29.81,WSW,248,3.4,4.6,81,0.00,CLR,,0.08,WeatherDisplay:10.37,2013-02-13 04:32:00,
2013-02-12 22:37:00,21.0,16.1,29.81,West,270,3.0,4.6,81,0.00,CLR,,0.08,WeatherDisplay:10.37,2013-02-13 04:37:00,
2013-02-12 22:42:00,21.0,16.1,29.81,NNW,338,3.9,4.6,81,0.00,CLR,,0.08,WeatherDisplay:10.37,2013-02-13 04:42:00,
2013-02-12 22:47:00,21.0,16.1,29.81,SW,225,3.8,4.7,81,0.00,CLR,,0.08,WeatherDisplay:10.37,2013-02-13 04:47:00,
2013-02-12 22:53:00,21.0,16.1,29.81,West,270,3.1,4.6,81,0.00,CLR,,0.08,WeatherDisplay:10.37,2013-02-13 04:53:00,
2013-02-12 22:58:00,20.8,15.9,29.80,West,270,3.2,3.5,81,0.00,CLR,,0.08,WeatherDisplay:10.37,2013-02-13 04:58:00,
2013-02-12 23:00:00,20.8,15.9,29.80,West,270,3.0,4.6,81,0.00,CLR,,0.08,WeatherDisplay:10.37,2013-02-13 05:00:00,
2013-02-12 23:01:00,20.8,15.9,29.80,WSW,248,4.5,5.8,81,0.00,CLR,,0.08,WeatherDisplay:10.37,2013-02-13 05:01:00,
2013-02-12 23:06:00,20.8,15.9,29.80,NNE,22,2.1,3.5,81,0.00,CLR,,0.08,WeatherDisplay:10.37,2013-02-13 05:06:00,
2013-02-12 23:11:00,21.2,16.0,29.79,North,360,2.4,3.5,80,0.00,CLR,,0.08,WeatherDisplay:10.37,2013-02-13 05:11:00,
2013-02-12 23:16:00,21.0,15.8,29.79,North,360,2.8,3.2,80,0.00,CLR,,0.08,WeatherDisplay:10.37,2013-02-13 05:16:00,
2013-02-12 23:21:00,21.2,16.0,29.79,North,360,3.1,4.6,80,0.00,CLR,,0.08,WeatherDisplay:10.37,2013-02-13 05:21:00,
2013-02-12 23:26:00,21.4,16.2,29.79,North,360,3.4,4.6,80,0.00,CLR,,0.08,WeatherDisplay:10.37,2013-02-13 05:26:00,
2013-02-12 23:31:00,21.4,16.2,29.79,North,360,2.5,4.6,80,0.00,CLR,,0.08,WeatherDisplay:10.37,2013-02-13 05:31:00,
2013-02-12 23:36:00,21.6,16.4,29.79,North,360,3.5,4.6,80,0.00,CLR,,0.08,WeatherDisplay:10.37,2013-02-13 05:36:00,
2013-02-12 23:41:00,21.7,16.5,29.79,North,360,3.7,5.8,80,0.00,CLR,,0.08,WeatherDisplay:10.37,2013-02-13 05:41:00,
2013-02-12 23:47:00,21.7,16.5,29.79,North,360,3.5,4.6,80,0.00,CLR,,0.08,WeatherDisplay:10.37,2013-02-13 05:47:00,
2013-02-12 23:52:00,21.7,16.5,29.79,North,360,3.6,4.6,80,0.00,CLR,,0.08,WeatherDisplay:10.37,2013-02-13 05:52:00,
2013-02-12 23:57:00,21.7,16.5,29.79,North,360,2.8,4.6,80,0.00,CLR,,0.08,WeatherDisplay:10.37,2013-02-13 05:57:00,